sensor_id;sensor_type;location;lat;lon;timestamp;P1;durP1;ratioP1;P2;durP2;ratioP2
2123;SDS011;1068;52.460;13.528;2022-12-16T00:00:06;30.98;;;19.40;;
2123;SDS011;1068;52.460;13.528;2022-12-16T00:02:34;31.52;;;18.75;;
2123;SDS011;1068;52.460;13.528;2022-12-16T00:05:01;28.58;;;16.40;;
2123;SDS011;1068;52.460;13.528;2022-12-16T00:07:28;31.33;;;19.00;;
2123;SDS011;1068;52.460;13.528;2022-12-16T00:09:54;26.98;;;15.90;;
2123;SDS011;1068;52.460;13.528;2022-12-16T00:12:23;34.80;;;18.27;;
2123;SDS011;1068;52.460;13.528;2022-12-16T00:14:50;31.02;;;18.13;;
2123;SDS011;1068;52.460;13.528;2022-12-16T00:17:17;32.00;;;18.50;;
2123;SDS011;1068;52.460;13.528;2022-12-16T00:19:44;34.05;;;17.88;;
2123;SDS011;1068;52.460;13.528;2022-12-16T00:22:11;31.88;;;18.00;;
2123;SDS011;1068;52.460;13.528;2022-12-16T00:24:38;30.73;;;18.63;;
2123;SDS011;1068;52.460;13.528;2022-12-16T00:27:05;27.10;;;18.35;;
2123;SDS011;1068;52.460;13.528;2022-12-16T00:29:33;30.58;;;17.55;;
2123;SDS011;1068;52.460;13.528;2022-12-16T00:32:00;31.50;;;17.00;;
2123;SDS011;1068;52.460;13.528;2022-12-16T00:34:27;26.52;;;16.75;;
2123;SDS011;1068;52.460;13.528;2022-12-16T00:36:54;31.02;;;18.50;;
2123;SDS011;1068;52.460;13.528;2022-12-16T00:39:21;36.25;;;18.45;;
2123;SDS011;1068;52.460;13.528;2022-12-16T00:41:48;30.13;;;16.80;;
2123;SDS011;1068;52.460;13.528;2022-12-16T00:44:15;26.27;;;16.35;;
2123;SDS011;1068;52.460;13.528;2022-12-16T00:46:44;35.55;;;18.45;;
2123;SDS011;1068;52.460;13.528;2022-12-16T00:49:11;35.55;;;19.77;;
2123;SDS011;1068;52.460;13.528;2022-12-16T00:51:38;29.75;;;17.80;;
2123;SDS011;1068;52.460;13.528;2022-12-16T00:54:05;28.83;;;17.63;;
2123;SDS011;1068;52.460;13.528;2022-12-16T00:56:32;34.78;;;19.10;;
2123;SDS011;1068;52.460;13.528;2022-12-16T00:58:59;37.05;;;19.38;;
2123;SDS011;1068;52.460;13.528;2022-12-16T01:01:26;30.52;;;19.85;;
2123;SDS011;1068;52.460;13.528;2022-12-16T01:03:55;26.90;;;17.95;;
2123;SDS011;1068;52.460;13.528;2022-12-16T01:06:22;29.52;;;17.25;;
2123;SDS011;1068;52.460;13.528;2022-12-16T01:08:49;37.00;;;20.38;;
2123;SDS011;1068;52.460;13.528;2022-12-16T01:11:17;33.95;;;18.55;;
2123;SDS011;1068;52.460;13.528;2022-12-16T01:13:44;36.88;;;19.50;;
2123;SDS011;1068;52.460;13.528;2022-12-16T01:16:11;26.95;;;17.02;;
2123;SDS011;1068;52.460;13.528;2022-12-16T01:18:39;33.58;;;17.73;;
2123;SDS011;1068;52.460;13.528;2022-12-16T01:21:07;28.73;;;17.30;;
2123;SDS011;1068;52.460;13.528;2022-12-16T01:23:36;29.90;;;17.77;;
2123;SDS011;1068;52.460;13.528;2022-12-16T01:26:03;31.33;;;18.08;;
2123;SDS011;1068;52.460;13.528;2022-12-16T01:28:30;33.97;;;18.70;;
2123;SDS011;1068;52.460;13.528;2022-12-16T01:30:58;35.25;;;19.08;;
2123;SDS011;1068;52.460;13.528;2022-12-16T01:33:26;40.00;;;20.83;;
2123;SDS011;1068;52.460;13.528;2022-12-16T01:35:57;36.05;;;19.40;;
2123;SDS011;1068;52.460;13.528;2022-12-16T01:38:26;35.55;;;20.08;;
2123;SDS011;1068;52.460;13.528;2022-12-16T01:40:53;30.17;;;19.13;;
2123;SDS011;1068;52.460;13.528;2022-12-16T01:43:22;27.92;;;17.80;;
2123;SDS011;1068;52.460;13.528;2022-12-16T01:45:49;29.83;;;18.50;;
2123;SDS011;1068;52.460;13.528;2022-12-16T01:48:18;32.55;;;19.05;;
2123;SDS011;1068;52.460;13.528;2022-12-16T01:50:47;38.55;;;20.75;;
2123;SDS011;1068;52.460;13.528;2022-12-16T01:53:15;33.10;;;19.45;;
2123;SDS011;1068;52.460;13.528;2022-12-16T01:55:44;37.28;;;19.40;;
2123;SDS011;1068;52.460;13.528;2022-12-16T01:58:13;37.10;;;18.95;;
2123;SDS011;1068;52.460;13.528;2022-12-16T02:00:41;31.75;;;19.65;;
2123;SDS011;1068;52.460;13.528;2022-12-16T02:03:08;36.38;;;18.73;;
2123;SDS011;1068;52.460;13.528;2022-12-16T02:05:37;33.25;;;19.40;;
2123;SDS011;1068;52.460;13.528;2022-12-16T02:08:06;32.30;;;19.45;;
2123;SDS011;1068;52.460;13.528;2022-12-16T02:10:38;25.77;;;17.67;;
2123;SDS011;1068;52.460;13.528;2022-12-16T02:13:11;27.05;;;16.55;;
2123;SDS011;1068;52.460;13.528;2022-12-16T02:15:43;28.88;;;16.25;;
2123;SDS011;1068;52.460;13.528;2022-12-16T02:18:13;37.47;;;18.30;;
2123;SDS011;1068;52.460;13.528;2022-12-16T02:20:50;35.50;;;18.30;;
2123;SDS011;1068;52.460;13.528;2022-12-16T02:23:35;24.73;;;15.95;;
2123;SDS011;1068;52.460;13.528;2022-12-16T02:26:22;27.52;;;16.45;;
2123;SDS011;1068;52.460;13.528;2022-12-16T02:29:06;30.50;;;16.27;;
2123;SDS011;1068;52.460;13.528;2022-12-16T02:31:42;25.23;;;15.75;;
2123;SDS011;1068;52.460;13.528;2022-12-16T02:34:13;27.27;;;16.42;;
2123;SDS011;1068;52.460;13.528;2022-12-16T02:36:49;29.80;;;17.27;;
2123;SDS011;1068;52.460;13.528;2022-12-16T02:39:18;24.00;;;14.95;;
2123;SDS011;1068;52.460;13.528;2022-12-16T02:41:48;31.48;;;17.08;;
2123;SDS011;1068;52.460;13.528;2022-12-16T02:44:16;30.00;;;18.65;;
2123;SDS011;1068;52.460;13.528;2022-12-16T02:46:51;31.95;;;17.15;;
2123;SDS011;1068;52.460;13.528;2022-12-16T02:52:13;28.40;;;15.38;;
2123;SDS011;1068;52.460;13.528;2022-12-16T02:54:40;26.45;;;15.38;;
2123;SDS011;1068;52.460;13.528;2022-12-16T02:57:10;26.98;;;16.23;;
2123;SDS011;1068;52.460;13.528;2022-12-16T02:59:41;29.90;;;15.90;;
2123;SDS011;1068;52.460;13.528;2022-12-16T03:02:11;22.63;;;15.30;;
2123;SDS011;1068;52.460;13.528;2022-12-16T03:04:42;28.83;;;16.83;;
2123;SDS011;1068;52.460;13.528;2022-12-16T03:07:13;29.13;;;16.35;;
2123;SDS011;1068;52.460;13.528;2022-12-16T03:09:41;28.83;;;16.35;;
2123;SDS011;1068;52.460;13.528;2022-12-16T03:12:09;28.38;;;16.88;;
2123;SDS011;1068;52.460;13.528;2022-12-16T03:14:38;25.92;;;16.08;;
2123;SDS011;1068;52.460;13.528;2022-12-16T03:17:07;26.38;;;14.70;;
2123;SDS011;1068;52.460;13.528;2022-12-16T03:19:36;27.75;;;15.70;;
2123;SDS011;1068;52.460;13.528;2022-12-16T03:22:05;31.15;;;16.17;;
2123;SDS011;1068;52.460;13.528;2022-12-16T03:24:32;27.40;;;17.73;;
2123;SDS011;1068;52.460;13.528;2022-12-16T03:27:00;28.92;;;15.90;;
2123;SDS011;1068;52.460;13.528;2022-12-16T03:29:33;31.73;;;17.65;;
2123;SDS011;1068;52.460;13.528;2022-12-16T03:32:01;28.02;;;16.75;;
2123;SDS011;1068;52.460;13.528;2022-12-16T03:34:31;25.55;;;14.40;;
2123;SDS011;1068;52.460;13.528;2022-12-16T03:37:02;23.88;;;15.30;;
2123;SDS011;1068;52.460;13.528;2022-12-16T03:39:31;29.98;;;16.35;;
2123;SDS011;1068;52.460;13.528;2022-12-16T03:41:58;30.23;;;17.90;;
2123;SDS011;1068;52.460;13.528;2022-12-16T03:44:26;27.52;;;15.35;;
2123;SDS011;1068;52.460;13.528;2022-12-16T03:46:53;27.95;;;16.75;;
2123;SDS011;1068;52.460;13.528;2022-12-16T03:49:20;26.65;;;15.98;;
2123;SDS011;1068;52.460;13.528;2022-12-16T03:51:47;26.77;;;16.30;;
2123;SDS011;1068;52.460;13.528;2022-12-16T03:54:16;30.38;;;17.02;;
2123;SDS011;1068;52.460;13.528;2022-12-16T03:56:43;25.88;;;17.23;;
2123;SDS011;1068;52.460;13.528;2022-12-16T03:59:10;26.60;;;15.85;;
2123;SDS011;1068;52.460;13.528;2022-12-16T04:01:37;32.25;;;17.65;;
2123;SDS011;1068;52.460;13.528;2022-12-16T04:04:05;27.02;;;16.15;;
2123;SDS011;1068;52.460;13.528;2022-12-16T04:06:32;29.90;;;16.40;;
2123;SDS011;1068;52.460;13.528;2022-12-16T04:08:59;28.35;;;17.02;;
2123;SDS011;1068;52.460;13.528;2022-12-16T04:11:27;27.58;;;17.02;;
2123;SDS011;1068;52.460;13.528;2022-12-16T04:14:11;28.75;;;16.90;;
2123;SDS011;1068;52.460;13.528;2022-12-16T04:16:56;27.73;;;16.73;;
2123;SDS011;1068;52.460;13.528;2022-12-16T04:19:41;26.10;;;16.00;;
2123;SDS011;1068;52.460;13.528;2022-12-16T04:22:28;26.45;;;15.60;;
2123;SDS011;1068;52.460;13.528;2022-12-16T04:25:14;28.60;;;16.30;;
2123;SDS011;1068;52.460;13.528;2022-12-16T04:27:43;25.70;;;17.00;;
2123;SDS011;1068;52.460;13.528;2022-12-16T04:30:11;27.40;;;15.48;;
2123;SDS011;1068;52.460;13.528;2022-12-16T04:32:44;31.50;;;17.35;;
2123;SDS011;1068;52.460;13.528;2022-12-16T04:35:29;32.08;;;17.63;;
2123;SDS011;1068;52.460;13.528;2022-12-16T04:38:14;27.67;;;15.80;;
2123;SDS011;1068;52.460;13.528;2022-12-16T04:40:58;26.70;;;15.13;;
2123;SDS011;1068;52.460;13.528;2022-12-16T04:43:44;27.10;;;15.65;;
2123;SDS011;1068;52.460;13.528;2022-12-16T04:46:29;27.60;;;16.60;;
2123;SDS011;1068;52.460;13.528;2022-12-16T04:49:16;32.78;;;17.42;;
2123;SDS011;1068;52.460;13.528;2022-12-16T04:52:01;22.23;;;15.25;;
2123;SDS011;1068;52.460;13.528;2022-12-16T04:54:45;23.92;;;15.63;;
2123;SDS011;1068;52.460;13.528;2022-12-16T04:57:30;33.42;;;17.10;;
2123;SDS011;1068;52.460;13.528;2022-12-16T05:00:16;27.55;;;16.13;;
2123;SDS011;1068;52.460;13.528;2022-12-16T05:03:00;33.58;;;17.73;;
2123;SDS011;1068;52.460;13.528;2022-12-16T05:05:45;29.77;;;18.05;;
2123;SDS011;1068;52.460;13.528;2022-12-16T05:08:30;28.80;;;16.90;;
2123;SDS011;1068;52.460;13.528;2022-12-16T05:11:14;26.20;;;16.42;;
2123;SDS011;1068;52.460;13.528;2022-12-16T05:13:59;27.65;;;17.20;;
2123;SDS011;1068;52.460;13.528;2022-12-16T05:16:45;30.13;;;17.33;;
2123;SDS011;1068;52.460;13.528;2022-12-16T05:19:29;27.35;;;16.13;;
2123;SDS011;1068;52.460;13.528;2022-12-16T05:22:14;29.60;;;18.35;;
2123;SDS011;1068;52.460;13.528;2022-12-16T05:24:58;26.95;;;16.85;;
2123;SDS011;1068;52.460;13.528;2022-12-16T05:27:43;32.83;;;18.58;;
2123;SDS011;1068;52.460;13.528;2022-12-16T05:30:27;34.30;;;19.05;;
2123;SDS011;1068;52.460;13.528;2022-12-16T05:33:13;38.88;;;17.95;;
2123;SDS011;1068;52.460;13.528;2022-12-16T05:35:58;36.60;;;19.35;;
2123;SDS011;1068;52.460;13.528;2022-12-16T05:38:42;27.88;;;17.77;;
2123;SDS011;1068;52.460;13.528;2022-12-16T05:41:26;35.75;;;18.33;;
2123;SDS011;1068;52.460;13.528;2022-12-16T05:44:11;31.15;;;19.10;;
2123;SDS011;1068;52.460;13.528;2022-12-16T05:46:55;31.58;;;16.95;;
2123;SDS011;1068;52.460;13.528;2022-12-16T05:49:41;32.30;;;17.20;;
2123;SDS011;1068;52.460;13.528;2022-12-16T05:52:26;31.35;;;16.10;;
2123;SDS011;1068;52.460;13.528;2022-12-16T05:55:10;28.90;;;18.10;;
2123;SDS011;1068;52.460;13.528;2022-12-16T05:57:55;25.92;;;16.73;;
2123;SDS011;1068;52.460;13.528;2022-12-16T06:00:39;32.22;;;18.40;;
2123;SDS011;1068;52.460;13.528;2022-12-16T06:03:24;29.65;;;17.83;;
2123;SDS011;1068;52.460;13.528;2022-12-16T06:06:10;30.45;;;18.77;;
2123;SDS011;1068;52.460;13.528;2022-12-16T06:08:54;35.15;;;19.20;;
2123;SDS011;1068;52.460;13.528;2022-12-16T06:11:39;32.75;;;17.02;;
2123;SDS011;1068;52.460;13.528;2022-12-16T06:14:23;30.98;;;17.30;;
2123;SDS011;1068;52.460;13.528;2022-12-16T06:17:08;32.38;;;18.15;;
2123;SDS011;1068;52.460;13.528;2022-12-16T06:19:53;32.80;;;18.10;;
2123;SDS011;1068;52.460;13.528;2022-12-16T06:22:39;32.53;;;18.65;;
2123;SDS011;1068;52.460;13.528;2022-12-16T06:25:23;28.85;;;17.13;;
2123;SDS011;1068;52.460;13.528;2022-12-16T06:28:08;37.05;;;18.55;;
2123;SDS011;1068;52.460;13.528;2022-12-16T06:30:52;27.73;;;17.35;;
2123;SDS011;1068;52.460;13.528;2022-12-16T06:33:37;36.47;;;20.85;;
2123;SDS011;1068;52.460;13.528;2022-12-16T06:36:21;31.65;;;19.50;;
2123;SDS011;1068;52.460;13.528;2022-12-16T06:39:07;33.83;;;20.52;;
2123;SDS011;1068;52.460;13.528;2022-12-16T06:41:52;33.80;;;18.40;;
2123;SDS011;1068;52.460;13.528;2022-12-16T06:44:37;43.42;;;26.13;;
2123;SDS011;1068;52.460;13.528;2022-12-16T06:47:21;39.40;;;24.88;;
2123;SDS011;1068;52.460;13.528;2022-12-16T06:50:06;42.85;;;25.20;;
2123;SDS011;1068;52.460;13.528;2022-12-16T06:52:51;39.63;;;24.48;;
2123;SDS011;1068;52.460;13.528;2022-12-16T06:55:37;38.70;;;23.55;;
2123;SDS011;1068;52.460;13.528;2022-12-16T06:58:21;40.92;;;23.38;;
2123;SDS011;1068;52.460;13.528;2022-12-16T07:01:06;33.45;;;21.45;;
2123;SDS011;1068;52.460;13.528;2022-12-16T07:03:50;43.50;;;23.13;;
2123;SDS011;1068;52.460;13.528;2022-12-16T07:06:35;41.30;;;23.88;;
2123;SDS011;1068;52.460;13.528;2022-12-16T07:09:19;43.92;;;24.27;;
2123;SDS011;1068;52.460;13.528;2022-12-16T07:12:05;36.03;;;23.15;;
2123;SDS011;1068;52.460;13.528;2022-12-16T07:14:50;43.22;;;24.50;;
2123;SDS011;1068;52.460;13.528;2022-12-16T07:17:34;43.90;;;25.92;;
2123;SDS011;1068;52.460;13.528;2022-12-16T07:20:19;41.90;;;24.77;;
2123;SDS011;1068;52.460;13.528;2022-12-16T07:23:04;38.28;;;22.55;;
2123;SDS011;1068;52.460;13.528;2022-12-16T07:25:48;38.20;;;21.95;;
2123;SDS011;1068;52.460;13.528;2022-12-16T07:28:34;43.65;;;25.23;;
2123;SDS011;1068;52.460;13.528;2022-12-16T07:31:19;42.22;;;23.15;;
2123;SDS011;1068;52.460;13.528;2022-12-16T07:34:03;45.55;;;23.05;;
2123;SDS011;1068;52.460;13.528;2022-12-16T07:36:48;43.65;;;24.40;;
2123;SDS011;1068;52.460;13.528;2022-12-16T07:39:34;43.50;;;24.67;;
2123;SDS011;1068;52.460;13.528;2022-12-16T07:42:19;43.17;;;26.60;;
2123;SDS011;1068;52.460;13.528;2022-12-16T07:45:06;45.90;;;24.98;;
2123;SDS011;1068;52.460;13.528;2022-12-16T07:47:50;44.35;;;24.63;;
2123;SDS011;1068;52.460;13.528;2022-12-16T07:50:35;45.05;;;23.65;;
2123;SDS011;1068;52.460;13.528;2022-12-16T07:53:20;39.58;;;24.15;;
2123;SDS011;1068;52.460;13.528;2022-12-16T07:56:05;45.72;;;24.55;;
2123;SDS011;1068;52.460;13.528;2022-12-16T07:58:50;42.38;;;24.70;;
2123;SDS011;1068;52.460;13.528;2022-12-16T08:01:36;41.85;;;24.73;;
2123;SDS011;1068;52.460;13.528;2022-12-16T08:04:20;44.92;;;26.13;;
2123;SDS011;1068;52.460;13.528;2022-12-16T08:07:07;48.75;;;30.00;;
2123;SDS011;1068;52.460;13.528;2022-12-16T08:09:52;48.80;;;28.92;;
2123;SDS011;1068;52.460;13.528;2022-12-16T08:12:37;47.53;;;27.90;;
2123;SDS011;1068;52.460;13.528;2022-12-16T08:15:21;47.40;;;25.70;;
2123;SDS011;1068;52.460;13.528;2022-12-16T08:18:07;52.40;;;29.48;;
2123;SDS011;1068;52.460;13.528;2022-12-16T08:20:52;45.13;;;26.75;;
2123;SDS011;1068;52.460;13.528;2022-12-16T08:23:36;47.17;;;25.77;;
2123;SDS011;1068;52.460;13.528;2022-12-16T08:26:21;43.92;;;28.48;;
2123;SDS011;1068;52.460;13.528;2022-12-16T08:29:05;54.05;;;36.03;;
2123;SDS011;1068;52.460;13.528;2022-12-16T08:31:50;54.35;;;32.97;;
2123;SDS011;1068;52.460;13.528;2022-12-16T08:34:36;63.90;;;33.90;;
2123;SDS011;1068;52.460;13.528;2022-12-16T08:37:20;65.25;;;34.03;;
2123;SDS011;1068;52.460;13.528;2022-12-16T08:40:05;56.60;;;30.48;;
2123;SDS011;1068;52.460;13.528;2022-12-16T08:42:50;54.30;;;30.73;;
2123;SDS011;1068;52.460;13.528;2022-12-16T08:45:34;51.58;;;30.77;;
2123;SDS011;1068;52.460;13.528;2022-12-16T08:48:19;54.65;;;29.92;;
2123;SDS011;1068;52.460;13.528;2022-12-16T08:51:05;45.10;;;27.88;;
2123;SDS011;1068;52.460;13.528;2022-12-16T08:53:50;54.38;;;28.08;;
2123;SDS011;1068;52.460;13.528;2022-12-16T08:56:34;41.95;;;24.05;;
2123;SDS011;1068;52.460;13.528;2022-12-16T08:59:19;49.65;;;28.20;;
2123;SDS011;1068;52.460;13.528;2022-12-16T09:02:03;48.08;;;28.15;;
2123;SDS011;1068;52.460;13.528;2022-12-16T09:04:48;42.17;;;25.52;;
2123;SDS011;1068;52.460;13.528;2022-12-16T09:07:34;45.70;;;28.25;;
2123;SDS011;1068;52.460;13.528;2022-12-16T09:10:19;54.97;;;30.95;;
2123;SDS011;1068;52.460;13.528;2022-12-16T09:13:04;56.53;;;30.95;;
2123;SDS011;1068;52.460;13.528;2022-12-16T09:15:49;55.10;;;32.72;;
2123;SDS011;1068;52.460;13.528;2022-12-16T09:18:33;53.63;;;30.98;;
2123;SDS011;1068;52.460;13.528;2022-12-16T09:21:18;63.70;;;34.78;;
2123;SDS011;1068;52.460;13.528;2022-12-16T09:24:04;60.28;;;31.55;;
2123;SDS011;1068;52.460;13.528;2022-12-16T09:26:49;56.63;;;32.15;;
2123;SDS011;1068;52.460;13.528;2022-12-16T09:29:33;63.30;;;32.88;;
2123;SDS011;1068;52.460;13.528;2022-12-16T09:32:18;59.17;;;32.47;;
2123;SDS011;1068;52.460;13.528;2022-12-16T09:35:08;55.22;;;32.35;;
2123;SDS011;1068;52.460;13.528;2022-12-16T09:37:53;62.30;;;33.22;;
2123;SDS011;1068;52.460;13.528;2022-12-16T09:40:39;59.97;;;31.92;;
2123;SDS011;1068;52.460;13.528;2022-12-16T09:43:39;57.90;;;33.63;;
2123;SDS011;1068;52.460;13.528;2022-12-16T09:46:27;56.28;;;31.65;;
2123;SDS011;1068;52.460;13.528;2022-12-16T09:49:15;65.35;;;34.67;;
2123;SDS011;1068;52.460;13.528;2022-12-16T09:52:02;67.05;;;35.85;;
2123;SDS011;1068;52.460;13.528;2022-12-16T09:54:58;68.88;;;36.22;;
2123;SDS011;1068;52.460;13.528;2022-12-16T09:57:56;63.63;;;35.70;;
2123;SDS011;1068;52.460;13.528;2022-12-16T10:00:40;76.47;;;35.70;;
2123;SDS011;1068;52.460;13.528;2022-12-16T10:03:26;68.25;;;36.13;;
2123;SDS011;1068;52.460;13.528;2022-12-16T10:06:17;64.70;;;36.00;;
2123;SDS011;1068;52.460;13.528;2022-12-16T10:09:08;62.88;;;34.60;;
2123;SDS011;1068;52.460;13.528;2022-12-16T10:11:57;57.75;;;32.63;;
2123;SDS011;1068;52.460;13.528;2022-12-16T10:14:46;61.53;;;33.63;;
2123;SDS011;1068;52.460;13.528;2022-12-16T10:17:34;58.67;;;34.83;;
2123;SDS011;1068;52.460;13.528;2022-12-16T10:20:23;61.47;;;35.05;;
2123;SDS011;1068;52.460;13.528;2022-12-16T10:23:13;65.10;;;34.38;;
2123;SDS011;1068;52.460;13.528;2022-12-16T10:26:01;61.83;;;32.88;;
2123;SDS011;1068;52.460;13.528;2022-12-16T10:28:47;51.60;;;32.38;;
2123;SDS011;1068;52.460;13.528;2022-12-16T10:31:35;57.42;;;32.97;;
2123;SDS011;1068;52.460;13.528;2022-12-16T10:34:23;54.33;;;32.97;;
2123;SDS011;1068;52.460;13.528;2022-12-16T10:37:09;62.38;;;34.88;;
2123;SDS011;1068;52.460;13.528;2022-12-16T10:39:57;53.13;;;31.67;;
2123;SDS011;1068;52.460;13.528;2022-12-16T10:42:43;58.25;;;34.10;;
2123;SDS011;1068;52.460;13.528;2022-12-16T10:45:30;55.40;;;32.35;;
2123;SDS011;1068;52.460;13.528;2022-12-16T10:48:19;56.65;;;32.88;;
2123;SDS011;1068;52.460;13.528;2022-12-16T10:51:08;58.00;;;35.05;;
2123;SDS011;1068;52.460;13.528;2022-12-16T10:53:55;58.72;;;35.33;;
2123;SDS011;1068;52.460;13.528;2022-12-16T10:56:46;60.80;;;34.85;;
2123;SDS011;1068;52.460;13.528;2022-12-16T10:59:34;54.05;;;32.85;;
2123;SDS011;1068;52.460;13.528;2022-12-16T11:02:19;58.70;;;33.92;;
2123;SDS011;1068;52.460;13.528;2022-12-16T11:05:20;53.25;;;32.22;;
2123;SDS011;1068;52.460;13.528;2022-12-16T11:08:08;52.25;;;34.33;;
2123;SDS011;1068;52.460;13.528;2022-12-16T11:11:10;58.92;;;31.73;;
2123;SDS011;1068;52.460;13.528;2022-12-16T11:14:07;58.45;;;33.17;;
2123;SDS011;1068;52.460;13.528;2022-12-16T11:17:02;55.00;;;33.33;;
2123;SDS011;1068;52.460;13.528;2022-12-16T11:20:04;53.67;;;31.92;;
2123;SDS011;1068;52.460;13.528;2022-12-16T11:23:01;53.72;;;32.58;;
2123;SDS011;1068;52.460;13.528;2022-12-16T11:26:01;48.63;;;29.60;;
2123;SDS011;1068;52.460;13.528;2022-12-16T11:28:51;50.67;;;29.50;;
2123;SDS011;1068;52.460;13.528;2022-12-16T11:31:45;52.88;;;33.72;;
2123;SDS011;1068;52.460;13.528;2022-12-16T11:34:32;64.10;;;34.08;;
2123;SDS011;1068;52.460;13.528;2022-12-16T11:37:17;49.03;;;30.77;;
2123;SDS011;1068;52.460;13.528;2022-12-16T11:40:04;54.33;;;32.03;;
2123;SDS011;1068;52.460;13.528;2022-12-16T11:42:50;61.63;;;33.92;;
2123;SDS011;1068;52.460;13.528;2022-12-16T11:45:35;57.38;;;34.47;;
2123;SDS011;1068;52.460;13.528;2022-12-16T11:48:21;60.10;;;31.50;;
2123;SDS011;1068;52.460;13.528;2022-12-16T11:51:10;58.40;;;32.33;;
2123;SDS011;1068;52.460;13.528;2022-12-16T11:53:58;56.03;;;33.15;;
2123;SDS011;1068;52.460;13.528;2022-12-16T11:56:45;51.40;;;32.47;;
2123;SDS011;1068;52.460;13.528;2022-12-16T11:59:31;54.38;;;30.17;;
2123;SDS011;1068;52.460;13.528;2022-12-16T12:02:19;55.97;;;31.75;;
2123;SDS011;1068;52.460;13.528;2022-12-16T12:05:04;49.38;;;32.28;;
2123;SDS011;1068;52.460;13.528;2022-12-16T12:07:56;49.83;;;30.00;;
2123;SDS011;1068;52.460;13.528;2022-12-16T12:10:46;49.92;;;31.90;;
2123;SDS011;1068;52.460;13.528;2022-12-16T12:13:40;58.38;;;33.70;;
2123;SDS011;1068;52.460;13.528;2022-12-16T12:16:31;52.15;;;32.08;;
2123;SDS011;1068;52.460;13.528;2022-12-16T12:19:19;56.28;;;33.22;;
2123;SDS011;1068;52.460;13.528;2022-12-16T12:22:06;58.60;;;32.60;;
2123;SDS011;1068;52.460;13.528;2022-12-16T12:24:55;50.45;;;31.15;;
2123;SDS011;1068;52.460;13.528;2022-12-16T12:27:45;50.28;;;32.63;;
2123;SDS011;1068;52.460;13.528;2022-12-16T12:30:35;55.13;;;33.03;;
2123;SDS011;1068;52.460;13.528;2022-12-16T12:33:23;53.35;;;31.83;;
2123;SDS011;1068;52.460;13.528;2022-12-16T12:36:12;57.50;;;33.83;;
2123;SDS011;1068;52.460;13.528;2022-12-16T12:39:00;48.92;;;30.08;;
2123;SDS011;1068;52.460;13.528;2022-12-16T12:41:50;52.08;;;31.02;;
2123;SDS011;1068;52.460;13.528;2022-12-16T12:44:39;52.67;;;31.60;;
2123;SDS011;1068;52.460;13.528;2022-12-16T12:47:28;52.22;;;32.38;;
2123;SDS011;1068;52.460;13.528;2022-12-16T12:50:15;52.65;;;32.25;;
2123;SDS011;1068;52.460;13.528;2022-12-16T12:53:04;52.60;;;31.52;;
2123;SDS011;1068;52.460;13.528;2022-12-16T12:55:54;48.95;;;29.73;;
2123;SDS011;1068;52.460;13.528;2022-12-16T12:58:40;50.70;;;28.83;;
2123;SDS011;1068;52.460;13.528;2022-12-16T13:01:26;48.88;;;29.83;;
2123;SDS011;1068;52.460;13.528;2022-12-16T13:04:14;45.67;;;27.52;;
2123;SDS011;1068;52.460;13.528;2022-12-16T13:07:00;40.47;;;27.08;;
2123;SDS011;1068;52.460;13.528;2022-12-16T13:09:45;45.47;;;27.15;;
2123;SDS011;1068;52.460;13.528;2022-12-16T13:12:30;47.72;;;28.52;;
2123;SDS011;1068;52.460;13.528;2022-12-16T13:15:19;42.97;;;26.10;;
2123;SDS011;1068;52.460;13.528;2022-12-16T13:18:12;46.10;;;25.52;;
2123;SDS011;1068;52.460;13.528;2022-12-16T13:20:58;41.03;;;26.45;;
2123;SDS011;1068;52.460;13.528;2022-12-16T13:23:43;46.35;;;26.67;;
2123;SDS011;1068;52.460;13.528;2022-12-16T13:26:28;38.88;;;24.67;;
2123;SDS011;1068;52.460;13.528;2022-12-16T13:29:16;44.53;;;26.35;;
2123;SDS011;1068;52.460;13.528;2022-12-16T13:32:17;40.42;;;27.17;;
2123;SDS011;1068;52.460;13.528;2022-12-16T13:35:02;39.35;;;25.33;;
2123;SDS011;1068;52.460;13.528;2022-12-16T13:37:51;40.92;;;25.15;;
2123;SDS011;1068;52.460;13.528;2022-12-16T13:40:51;47.75;;;27.77;;
2123;SDS011;1068;52.460;13.528;2022-12-16T13:43:41;43.03;;;26.17;;
2123;SDS011;1068;52.460;13.528;2022-12-16T13:46:37;42.75;;;25.48;;
2123;SDS011;1068;52.460;13.528;2022-12-16T13:49:39;35.72;;;23.75;;
2123;SDS011;1068;52.460;13.528;2022-12-16T13:52:26;42.53;;;26.95;;
2123;SDS011;1068;52.460;13.528;2022-12-16T13:55:16;47.05;;;28.98;;
2123;SDS011;1068;52.460;13.528;2022-12-16T13:58:04;46.83;;;26.30;;
2123;SDS011;1068;52.460;13.528;2022-12-16T14:00:53;43.83;;;26.70;;
2123;SDS011;1068;52.460;13.528;2022-12-16T14:03:44;41.15;;;25.55;;
2123;SDS011;1068;52.460;13.528;2022-12-16T14:06:30;45.05;;;27.98;;
2123;SDS011;1068;52.460;13.528;2022-12-16T14:09:18;45.95;;;27.55;;
2123;SDS011;1068;52.460;13.528;2022-12-16T14:12:12;45.22;;;25.63;;
2123;SDS011;1068;52.460;13.528;2022-12-16T14:15:00;44.63;;;27.67;;
2123;SDS011;1068;52.460;13.528;2022-12-16T14:17:48;42.25;;;26.42;;
2123;SDS011;1068;52.460;13.528;2022-12-16T14:20:37;48.75;;;28.88;;
2123;SDS011;1068;52.460;13.528;2022-12-16T14:23:26;44.42;;;25.02;;
2123;SDS011;1068;52.460;13.528;2022-12-16T14:26:13;44.45;;;27.95;;
2123;SDS011;1068;52.460;13.528;2022-12-16T14:29:00;48.53;;;28.23;;
2123;SDS011;1068;52.460;13.528;2022-12-16T14:31:46;46.30;;;27.92;;
2123;SDS011;1068;52.460;13.528;2022-12-16T14:34:45;44.35;;;29.10;;
2123;SDS011;1068;52.460;13.528;2022-12-16T14:37:32;49.53;;;27.80;;
2123;SDS011;1068;52.460;13.528;2022-12-16T14:40:21;46.70;;;27.08;;
2123;SDS011;1068;52.460;13.528;2022-12-16T14:43:09;55.38;;;30.02;;
2123;SDS011;1068;52.460;13.528;2022-12-16T14:45:56;44.20;;;27.58;;
2123;SDS011;1068;52.460;13.528;2022-12-16T14:48:44;47.95;;;28.00;;
2123;SDS011;1068;52.460;13.528;2022-12-16T14:51:30;50.17;;;28.50;;
2123;SDS011;1068;52.460;13.528;2022-12-16T14:54:16;49.58;;;28.48;;
2123;SDS011;1068;52.460;13.528;2022-12-16T14:57:01;50.70;;;27.92;;
2123;SDS011;1068;52.460;13.528;2022-12-16T14:59:45;42.58;;;26.40;;
2123;SDS011;1068;52.460;13.528;2022-12-16T15:02:32;47.90;;;28.13;;
2123;SDS011;1068;52.460;13.528;2022-12-16T15:05:18;49.53;;;28.80;;
2123;SDS011;1068;52.460;13.528;2022-12-16T15:08:04;42.58;;;26.60;;
2123;SDS011;1068;52.460;13.528;2022-12-16T15:10:49;50.83;;;28.70;;
2123;SDS011;1068;52.460;13.528;2022-12-16T15:13:34;45.97;;;27.20;;
2123;SDS011;1068;52.460;13.528;2022-12-16T15:16:20;49.03;;;28.13;;
2123;SDS011;1068;52.460;13.528;2022-12-16T15:19:09;46.13;;;28.48;;
2123;SDS011;1068;52.460;13.528;2022-12-16T15:21:58;46.10;;;27.95;;
2123;SDS011;1068;52.460;13.528;2022-12-16T15:24:43;55.08;;;30.13;;
2123;SDS011;1068;52.460;13.528;2022-12-16T15:27:33;52.15;;;30.42;;
2123;SDS011;1068;52.460;13.528;2022-12-16T15:30:30;51.28;;;29.63;;
2123;SDS011;1068;52.460;13.528;2022-12-16T15:33:21;47.45;;;26.85;;
2123;SDS011;1068;52.460;13.528;2022-12-16T15:36:10;41.40;;;26.50;;
2123;SDS011;1068;52.460;13.528;2022-12-16T15:38:57;43.20;;;29.42;;
2123;SDS011;1068;52.460;13.528;2022-12-16T15:41:45;43.45;;;27.60;;
2123;SDS011;1068;52.460;13.528;2022-12-16T15:44:30;49.28;;;28.48;;
2123;SDS011;1068;52.460;13.528;2022-12-16T15:47:18;49.28;;;28.75;;
2123;SDS011;1068;52.460;13.528;2022-12-16T15:50:04;48.00;;;28.33;;
2123;SDS011;1068;52.460;13.528;2022-12-16T15:52:50;47.58;;;28.85;;
2123;SDS011;1068;52.460;13.528;2022-12-16T15:55:36;47.55;;;28.67;;
2123;SDS011;1068;52.460;13.528;2022-12-16T15:58:23;54.25;;;29.95;;
2123;SDS011;1068;52.460;13.528;2022-12-16T16:01:08;51.08;;;31.13;;